createdAt,value
2022-08-02T00:00:35.241Z,12.70
2022-08-02T00:03:02.311Z,12.32
2022-08-02T00:05:29.309Z,7.35
2022-08-02T00:07:56.279Z,13.02
2022-08-02T00:10:23.234Z,10.50
2022-08-02T00:12:50.314Z,9.27
2022-08-02T00:15:17.511Z,11.43
2022-08-02T00:17:45.600Z,11.88
2022-08-02T00:20:14.388Z,14.00
2022-08-02T00:22:41.341Z,17.02
2022-08-02T00:25:08.690Z,9.70
2022-08-02T00:27:35.689Z,16.02
2022-08-02T00:30:02.667Z,19.33
2022-08-02T00:32:29.688Z,16.52
2022-08-02T00:34:56.517Z,20.90
2022-08-02T00:37:23.521Z,18.48
2022-08-02T00:39:50.448Z,15.95
2022-08-02T00:42:17.361Z,21.95
2022-08-02T00:44:44.240Z,24.05
2022-08-02T00:47:11.330Z,26.73
2022-08-02T00:49:46.802Z,28.23
2022-08-02T00:52:13.887Z,26.85
2022-08-02T00:54:41.048Z,23.98
2022-08-02T00:57:07.905Z,27.77
2022-08-02T00:59:34.793Z,27.95
2022-08-02T01:02:01.723Z,28.60
2022-08-02T01:04:30.107Z,29.67
2022-08-02T01:07:00.224Z,29.77
2022-08-02T01:09:27.411Z,34.13
2022-08-02T01:11:54.442Z,33.50
2022-08-02T01:14:24.569Z,30.80
2022-08-02T01:17:12.329Z,35.53
2022-08-02T01:20:03.065Z,30.65
2022-08-02T01:23:00.740Z,42.33
2022-08-02T01:25:44.361Z,33.63
2022-08-02T01:28:34.041Z,33.15
2022-08-02T01:31:20.877Z,37.38
2022-08-02T01:34:13.711Z,43.90
2022-08-02T01:36:45.708Z,40.53
2022-08-02T01:39:27.330Z,43.60
2022-08-02T01:42:01.160Z,44.47
2022-08-02T01:44:31.834Z,46.28
2022-08-02T01:47:04.564Z,41.75
2022-08-02T01:49:34.483Z,46.10
2022-08-02T01:52:22.431Z,46.20
2022-08-02T01:55:03.851Z,49.35
2022-08-02T01:57:41.832Z,45.47
2022-08-02T02:00:10.843Z,49.05
2022-08-02T02:02:41.842Z,46.65
2022-08-02T02:05:14.927Z,46.65
2022-08-02T02:07:43.774Z,44.88
2022-08-02T02:10:14.468Z,44.25
2022-08-02T02:12:46.662Z,41.83
2022-08-02T02:15:14.606Z,47.85
2022-08-02T02:17:53.223Z,44.70
2022-08-02T02:20:34.840Z,40.80
2022-08-02T02:23:03.135Z,40.35
2022-08-02T02:25:36.123Z,43.05
2022-08-02T02:28:22.573Z,41.58
2022-08-02T02:30:53.282Z,42.40
2022-08-02T02:33:27.698Z,49.63
2022-08-02T02:35:58.154Z,44.05
2022-08-02T02:38:28.654Z,45.88
2022-08-02T02:40:56.526Z,48.47
2022-08-02T02:43:27.539Z,50.85
2022-08-02T02:45:56.617Z,50.72
2022-08-02T02:48:23.965Z,48.20
2022-08-02T02:50:51.539Z,51.33
2022-08-02T02:53:19.672Z,52.22
2022-08-02T02:56:02.312Z,47.22
2022-08-02T02:58:31.354Z,45.45
2022-08-02T03:01:16.604Z,50.30
2022-08-02T03:03:45.405Z,45.58
2022-08-02T03:06:15.056Z,43.20
2022-08-02T03:08:42.958Z,47.13
2022-08-02T03:11:11.129Z,38.67
2022-08-02T03:13:39.022Z,43.10
2022-08-02T03:16:06.772Z,41.70
2022-08-02T03:18:38.882Z,40.08
2022-08-02T03:21:11.698Z,45.72
2022-08-02T03:23:40.355Z,39.22
2022-08-02T03:26:07.791Z,40.88
2022-08-02T03:28:36.170Z,42.67
2022-08-02T03:31:03.511Z,45.35
2022-08-02T03:33:31.565Z,42.78
2022-08-02T03:36:01.575Z,47.13
2022-08-02T03:38:30.575Z,39.75
2022-08-02T03:40:58.527Z,47.38
2022-08-02T03:43:28.917Z,43.92
2022-08-02T03:45:57.138Z,43.22
2022-08-02T03:48:33.795Z,43.80
2022-08-02T03:51:02.356Z,46.50
2022-08-02T03:53:29.422Z,46.25
2022-08-02T03:55:56.835Z,43.80
2022-08-02T03:58:25.206Z,49.45
2022-08-02T04:00:54.549Z,51.90
2022-08-02T04:03:21.560Z,49.92
2022-08-02T04:06:03.345Z,49.45
2022-08-02T04:08:35.949Z,51.75
2022-08-02T04:11:23.078Z,52.03
2022-08-02T04:13:50.167Z,50.35
2022-08-02T04:16:23.852Z,49.83
2022-08-02T04:18:55.191Z,55.85
2022-08-02T04:21:25.762Z,51.33
2022-08-02T04:23:54.351Z,47.30
2022-08-02T04:26:26.771Z,50.33
2022-08-02T04:28:56.825Z,50.08
2022-08-02T04:31:23.937Z,50.72
2022-08-02T04:33:51.437Z,49.95
2022-08-02T04:36:31.586Z,48.70
2022-08-02T04:38:59.206Z,51.00
2022-08-02T04:41:43.877Z,45.92
2022-08-02T04:44:13.079Z,48.25
2022-08-02T04:46:41.027Z,41.17
2022-08-02T04:49:08.080Z,40.38
2022-08-02T04:51:37.747Z,34.25
2022-08-02T04:54:09.593Z,34.40
2022-08-02T04:56:38.160Z,33.92
2022-08-02T04:59:05.823Z,33.83
2022-08-02T05:01:33.276Z,31.67
2022-08-02T05:04:00.945Z,32.03
2022-08-02T05:06:27.824Z,26.25
2022-08-02T05:08:54.665Z,30.95
2022-08-02T05:11:30.070Z,29.70
2022-08-02T05:14:03.255Z,28.67
2022-08-02T05:16:31.452Z,27.30
2022-08-02T05:19:00.140Z,20.38
2022-08-02T05:21:27.130Z,22.55
2022-08-02T05:23:54.025Z,27.05
2022-08-02T05:26:20.976Z,20.50
2022-08-02T05:28:48.273Z,21.27
2022-08-02T05:31:15.194Z,21.83
2022-08-02T05:33:44.676Z,21.05
2022-08-02T05:36:11.561Z,22.50
2022-08-02T05:38:38.462Z,23.88
2022-08-02T05:41:06.481Z,19.73
2022-08-02T05:43:33.779Z,19.13
2022-08-02T05:46:00.855Z,20.85
2022-08-02T05:48:31.950Z,20.15
2022-08-02T05:51:22.126Z,19.25
2022-08-02T05:54:01.535Z,21.00
2022-08-02T05:56:46.457Z,22.60
2022-08-02T05:59:38.452Z,16.95
2022-08-02T06:02:16.837Z,21.52
2022-08-02T06:05:19.122Z,20.10
2022-08-02T06:07:47.849Z,22.98
2022-08-02T06:10:16.945Z,18.42
2022-08-02T06:12:51.790Z,18.83
2022-08-02T06:15:20.342Z,18.40
2022-08-02T06:17:48.283Z,19.30
2022-08-02T06:20:20.178Z,18.90
2022-08-02T06:22:47.826Z,20.65
2022-08-02T06:25:50.261Z,19.25
2022-08-02T06:28:04.601Z,21.27
2022-08-02T06:30:39.153Z,15.88
2022-08-02T06:33:06.091Z,20.23
2022-08-02T06:35:55.617Z,23.10
2022-08-02T06:38:25.458Z,16.88
2022-08-02T06:41:01.842Z,19.52
2022-08-02T06:43:40.652Z,16.38
2022-08-02T06:46:53.247Z,17.88
2022-08-02T06:48:55.400Z,17.50
2022-08-02T06:51:22.344Z,20.23
2022-08-02T06:53:50.139Z,18.00
2022-08-02T06:56:17.100Z,16.42
2022-08-02T06:58:43.991Z,17.45
2022-08-02T07:01:11.988Z,17.77
2022-08-02T07:03:40.611Z,17.23
2022-08-02T07:06:11.477Z,14.52
2022-08-02T07:08:39.210Z,14.98
2022-08-02T07:11:07.688Z,13.50
2022-08-02T07:13:39.562Z,13.85
2022-08-02T07:16:07.853Z,13.20
2022-08-02T07:18:34.897Z,19.80
2022-08-02T07:21:02.198Z,14.75
2022-08-02T07:23:29.435Z,16.00
2022-08-02T07:26:02.977Z,12.27
2022-08-02T07:28:31.308Z,12.25
2022-08-02T07:30:58.166Z,15.63
2022-08-02T07:33:37.959Z,18.27
2022-08-02T07:36:08.985Z,13.38
2022-08-02T07:38:37.576Z,11.02
2022-08-02T07:41:04.662Z,13.05
2022-08-02T07:43:31.965Z,11.02
2022-08-02T07:46:00.761Z,13.75
2022-08-02T07:48:28.165Z,12.05
2022-08-02T07:50:55.183Z,7.47
2022-08-02T07:53:50.230Z,10.93
2022-08-02T07:56:09.750Z,11.73
2022-08-02T07:58:36.598Z,12.60
2022-08-02T08:01:03.530Z,8.10
2022-08-02T08:03:30.472Z,9.38
2022-08-02T08:05:57.621Z,10.13
2022-08-02T08:08:24.496Z,12.43
2022-08-02T08:10:51.478Z,11.15
2022-08-02T08:13:18.342Z,10.65
2022-08-02T08:15:51.823Z,10.43
2022-08-02T08:18:20.519Z,12.27
2022-08-02T08:20:47.327Z,9.05
2022-08-02T08:23:14.235Z,8.73
2022-08-02T08:25:41.536Z,7.72
2022-08-02T08:28:09.340Z,9.77
2022-08-02T08:30:36.329Z,10.02
2022-08-02T08:33:04.480Z,10.32
2022-08-02T08:35:31.400Z,8.70
2022-08-02T08:37:58.329Z,9.38
2022-08-02T08:40:25.839Z,10.73
2022-08-02T08:42:53.080Z,9.80
2022-08-02T08:45:19.929Z,9.77
2022-08-02T08:47:53.214Z,7.43
2022-08-02T08:50:25.446Z,9.43
2022-08-02T08:53:08.726Z,8.57
2022-08-02T08:55:39.205Z,8.20
2022-08-02T08:58:06.356Z,8.85
2022-08-02T09:00:36.066Z,12.45
2022-08-02T09:03:07.110Z,10.82
2022-08-02T09:05:41.788Z,7.28
2022-08-02T09:08:13.480Z,12.02
2022-08-02T09:10:48.476Z,5.50
2022-08-02T09:13:37.765Z,9.20
2022-08-02T09:16:12.242Z,5.70
2022-08-02T09:18:44.523Z,6.63
2022-08-02T09:21:12.636Z,7.22
2022-08-02T09:23:48.185Z,7.50
2022-08-02T09:26:18.698Z,6.97
2022-08-02T09:28:48.425Z,10.20
2022-08-02T09:31:20.200Z,8.18
2022-08-02T09:33:53.921Z,8.27
2022-08-02T09:36:21.758Z,7.43
2022-08-02T09:38:59.773Z,5.05
2022-08-02T09:41:29.149Z,7.22
2022-08-02T09:44:04.813Z,4.18
2022-08-02T09:46:41.565Z,7.60
2022-08-02T09:49:13.941Z,5.80
2022-08-02T09:51:50.128Z,6.93
2022-08-02T09:54:24.779Z,5.28
2022-08-02T09:56:57.882Z,8.23
2022-08-02T09:59:26.186Z,6.90
2022-08-02T10:02:01.333Z,5.35
2022-08-02T10:04:32.097Z,7.15
2022-08-02T10:07:04.409Z,5.63
2022-08-02T10:09:31.944Z,5.93
2022-08-02T10:12:00.176Z,5.38
2022-08-02T10:14:27.943Z,6.90
2022-08-02T10:16:58.228Z,5.13
2022-08-02T10:20:01.249Z,4.85
2022-08-02T10:22:14.622Z,6.93
2022-08-02T10:24:47.648Z,4.97
2022-08-02T10:27:17.501Z,5.53
2022-08-02T10:29:53.853Z,9.15
2022-08-02T10:32:39.791Z,7.55
2022-08-02T10:35:19.022Z,6.85
2022-08-02T10:38:01.408Z,6.68
2022-08-02T10:40:44.656Z,7.18
2022-08-02T10:43:11.947Z,8.38
2022-08-02T10:45:39.533Z,5.45
2022-08-02T10:48:11.783Z,7.45
2022-08-02T10:50:48.072Z,6.80
2022-08-02T10:53:34.590Z,8.60
2022-08-02T10:56:04.075Z,12.93
2022-08-02T10:58:32.791Z,14.88
2022-08-02T11:01:38.804Z,10.82
2022-08-02T11:04:10.605Z,10.35
2022-08-02T11:07:14.218Z,13.02
2022-08-02T11:09:42.544Z,13.18
2022-08-02T11:12:12.211Z,9.18
2022-08-02T11:14:41.738Z,10.95
2022-08-02T11:17:19.001Z,15.25
2022-08-02T11:20:05.849Z,12.27
2022-08-02T11:22:32.730Z,16.10
2022-08-02T11:25:22.413Z,15.90
2022-08-02T11:27:50.367Z,19.65
2022-08-02T11:30:17.850Z,16.20
2022-08-02T11:32:44.829Z,14.60
2022-08-02T11:35:11.960Z,14.20
2022-08-02T11:37:41.472Z,13.15
2022-08-02T11:40:19.340Z,15.50
2022-08-02T11:42:50.942Z,19.05
2022-08-02T11:45:21.089Z,16.40
2022-08-02T11:47:54.267Z,20.83
2022-08-02T11:50:30.335Z,19.85
2022-08-02T11:52:57.882Z,9.70
2022-08-02T11:55:30.901Z,13.85
2022-08-02T11:58:05.764Z,15.38
2022-08-02T12:03:00.438Z,12.57
2022-08-02T12:06:03.999Z,13.15
2022-08-02T12:08:14.489Z,11.18
2022-08-02T12:10:50.351Z,12.63
2022-08-02T12:13:17.410Z,15.32
2022-08-02T12:15:46.333Z,12.55
2022-08-02T12:18:39.465Z,12.05
2022-08-02T12:21:25.514Z,11.00
2022-08-02T12:23:59.386Z,8.98
2022-08-02T12:26:29.112Z,17.25
2022-08-02T12:29:00.006Z,9.23
2022-08-02T12:31:56.017Z,16.20
2022-08-02T12:34:31.379Z,13.18
2022-08-02T12:37:04.460Z,10.43
2022-08-02T12:39:38.245Z,14.13
2022-08-02T12:42:07.312Z,24.95
2022-08-02T12:44:37.516Z,9.45
2022-08-02T12:47:12.267Z,11.63
2022-08-02T12:49:39.161Z,8.73
2022-08-02T12:52:23.282Z,20.27
2022-08-02T12:54:50.684Z,18.17
2022-08-02T12:57:19.540Z,16.92
2022-08-02T12:59:52.166Z,12.50
2022-08-02T13:02:20.058Z,16.38
2022-08-02T13:04:49.740Z,16.08
2022-08-02T13:07:18.642Z,13.60
2022-08-02T13:09:46.772Z,10.65
2022-08-02T13:12:14.579Z,14.60
2022-08-02T13:14:42.752Z,17.58
2022-08-02T13:17:12.928Z,15.60
2022-08-02T13:19:40.976Z,20.77
2022-08-02T13:22:08.658Z,11.88
2022-08-02T13:24:55.045Z,9.25
2022-08-02T13:27:24.447Z,13.00
2022-08-02T13:29:52.082Z,14.38
2022-08-02T13:32:19.344Z,17.27
2022-08-02T13:34:46.294Z,14.73
2022-08-02T13:37:13.870Z,12.32
2022-08-02T13:39:40.772Z,14.13
2022-08-02T13:42:08.006Z,10.40
2022-08-02T13:44:35.632Z,16.35
2022-08-02T13:47:03.326Z,12.63
2022-08-02T13:49:38.513Z,13.05
2022-08-02T13:52:17.649Z,16.67
2022-08-02T13:54:44.617Z,13.73
2022-08-02T13:57:11.555Z,10.75
2022-08-02T13:59:57.112Z,18.67
2022-08-02T14:02:26.684Z,15.15
2022-08-02T14:04:53.651Z,13.20
2022-08-02T14:07:21.172Z,10.50
2022-08-02T14:09:48.040Z,13.60
2022-08-02T14:12:15.515Z,17.27
2022-08-02T14:14:42.630Z,15.63
2022-08-02T14:17:11.138Z,15.95
2022-08-02T14:19:38.337Z,17.83
2022-08-02T14:22:21.369Z,20.67
2022-08-02T14:24:48.603Z,15.88
2022-08-02T14:27:15.833Z,14.50
2022-08-02T14:29:42.925Z,12.82
2022-08-02T14:32:10.378Z,13.55
2022-08-02T14:34:37.662Z,10.38
2022-08-02T14:37:04.730Z,15.32
2022-08-02T14:39:43.150Z,16.35
2022-08-02T14:42:18.547Z,15.48
2022-08-02T14:44:45.600Z,17.42
2022-08-02T14:47:12.614Z,28.33
2022-08-02T14:49:41.890Z,22.38
2022-08-02T14:52:10.682Z,20.38
2022-08-02T14:54:37.794Z,17.77
2022-08-02T14:57:04.840Z,20.05
2022-08-02T14:59:31.787Z,22.13
2022-08-02T15:01:59.360Z,13.93
2022-08-02T15:04:26.479Z,23.80
2022-08-02T15:06:54.137Z,14.45
2022-08-02T15:09:21.494Z,14.18
2022-08-02T15:11:49.315Z,18.83
2022-08-02T15:14:21.743Z,17.48
2022-08-02T15:16:56.545Z,16.20
2022-08-02T15:19:30.307Z,16.85
2022-08-02T15:22:17.075Z,16.42
2022-08-02T15:24:47.667Z,17.38
2022-08-02T15:27:15.259Z,18.13
2022-08-02T15:29:43.853Z,15.23
2022-08-02T15:32:12.337Z,14.25
2022-08-02T15:34:40.438Z,16.58
2022-08-02T15:37:07.733Z,16.13
2022-08-02T15:39:36.973Z,14.75
2022-08-02T15:42:04.299Z,20.70
2022-08-02T15:44:31.224Z,12.80
2022-08-02T15:46:58.442Z,14.25
2022-08-02T15:49:25.669Z,14.95
2022-08-02T15:51:53.549Z,18.85
2022-08-02T15:54:20.667Z,17.42
2022-08-02T15:56:47.663Z,18.55
2022-08-02T15:59:14.995Z,19.55
2022-08-02T16:01:46.635Z,10.75
2022-08-02T16:04:14.920Z,14.65
2022-08-02T16:06:42.292Z,15.75
2022-08-02T16:09:09.340Z,19.95
2022-08-02T16:11:36.260Z,13.50
2022-08-02T16:14:03.434Z,13.85
2022-08-02T16:16:32.252Z,20.85
2022-08-02T16:19:46.623Z,19.27
2022-08-02T16:21:48.283Z,10.52
2022-08-02T16:24:15.181Z,12.40
2022-08-02T16:26:42.577Z,14.43
2022-08-02T16:29:10.097Z,18.98
2022-08-02T16:31:42.032Z,15.25
2022-08-02T16:34:10.031Z,14.77
2022-08-02T16:36:37.750Z,15.68
2022-08-02T16:39:05.632Z,10.85
2022-08-02T16:41:45.533Z,13.93
2022-08-02T16:44:29.184Z,11.30
2022-08-02T16:47:00.557Z,16.30
2022-08-02T16:50:05.935Z,16.75
2022-08-02T16:52:19.184Z,15.98
2022-08-02T16:54:49.539Z,15.93
2022-08-02T16:57:20.600Z,19.98
2022-08-02T16:59:57.820Z,13.63
2022-08-02T17:02:26.338Z,11.15
2022-08-02T17:04:53.270Z,15.50
2022-08-02T17:08:07.451Z,18.77
2022-08-02T17:10:09.531Z,12.07
2022-08-02T17:12:37.894Z,13.95
2022-08-02T17:16:01.618Z,13.52
2022-08-02T17:17:53.532Z,11.68
2022-08-02T17:20:20.704Z,18.25
2022-08-02T17:22:47.855Z,14.82
2022-08-02T17:25:17.826Z,11.85
2022-08-02T17:27:46.134Z,14.30
2022-08-02T17:30:13.620Z,16.42
2022-08-02T17:32:45.454Z,13.40
2022-08-02T17:35:15.696Z,12.90
2022-08-02T17:37:54.602Z,15.38
2022-08-02T17:40:27.273Z,8.95
2022-08-02T17:42:54.191Z,11.63
2022-08-02T17:48:08.013Z,9.20
2022-08-02T17:50:36.090Z,12.82
2022-08-02T17:53:04.045Z,8.73
2022-08-02T17:55:33.132Z,13.32
2022-08-02T17:58:00.148Z,8.27
2022-08-02T18:00:34.871Z,15.25
2022-08-02T18:03:05.914Z,14.88
2022-08-02T18:05:40.294Z,9.60
2022-08-02T18:10:51.162Z,10.95
2022-08-02T18:13:18.070Z,10.52
2022-08-02T18:15:45.597Z,9.57
2022-08-02T18:18:13.475Z,12.20
2022-08-02T18:20:41.598Z,12.05
2022-08-02T18:23:13.399Z,14.02
2022-08-02T18:25:46.765Z,13.10
2022-08-02T18:28:15.328Z,13.38
2022-08-02T18:30:43.179Z,15.20
2022-08-02T18:35:57.450Z,12.98
2022-08-02T18:38:27.901Z,13.45
2022-08-02T18:40:55.307Z,18.80
2022-08-02T18:43:25.447Z,16.92
2022-08-02T18:46:06.518Z,13.85
2022-08-02T18:48:46.214Z,7.88
2022-08-02T18:51:14.642Z,9.20
2022-08-02T18:53:42.892Z,11.40
2022-08-02T18:56:20.223Z,15.35
2022-08-02T18:58:53.183Z,9.70
2022-08-02T19:01:32.529Z,8.40
2022-08-02T19:04:02.772Z,11.40
2022-08-02T19:06:30.033Z,13.55
2022-08-02T19:09:06.067Z,9.98
2022-08-02T19:11:40.965Z,12.05
2022-08-02T19:14:08.231Z,18.85
2022-08-02T19:16:36.956Z,10.90
2022-08-02T19:19:09.070Z,14.60
2022-08-02T19:22:15.891Z,9.68
2022-08-02T19:24:23.158Z,11.13
2022-08-02T19:26:52.079Z,10.30
2022-08-02T19:29:42.166Z,8.63
2022-08-02T19:32:39.288Z,12.80
2022-08-02T19:34:55.960Z,12.43
2022-08-02T19:37:23.684Z,8.15
2022-08-02T19:39:50.689Z,10.13
2022-08-02T19:42:18.727Z,9.20
2022-08-02T19:44:46.440Z,7.03
2022-08-02T19:47:19.430Z,10.07
2022-08-02T19:49:49.024Z,12.35
2022-08-02T19:56:00.364Z,9.43
2022-08-02T19:57:50.889Z,6.68
2022-08-02T20:00:21.318Z,8.60
2022-08-02T20:02:48.813Z,5.03
2022-08-02T20:05:16.281Z,14.00
2022-08-02T20:07:56.139Z,10.68
2022-08-02T20:10:24.586Z,9.65
2022-08-02T20:12:54.025Z,12.27
2022-08-02T20:15:21.768Z,14.30
2022-08-02T20:17:49.152Z,7.00
2022-08-02T20:20:17.792Z,6.13
2022-08-02T20:23:32.071Z,13.10
2022-08-02T20:25:51.676Z,8.88
2022-08-02T20:28:22.143Z,13.00
2022-08-02T20:30:49.814Z,10.57
2022-08-02T20:33:22.007Z,13.30
2022-08-02T20:35:51.685Z,8.10
2022-08-02T20:38:25.058Z,8.10
2022-08-02T20:40:56.954Z,4.90
2022-08-02T20:43:31.208Z,9.52
2022-08-02T20:46:11.223Z,8.38
2022-08-02T20:48:38.075Z,7.07
2022-08-02T20:51:09.733Z,11.40
2022-08-02T20:53:55.271Z,5.30
2022-08-02T20:56:26.057Z,4.85
2022-08-02T20:58:52.965Z,6.97
2022-08-02T21:01:21.564Z,10.52
2022-08-02T21:03:53.672Z,9.57
2022-08-02T21:06:29.922Z,6.00
2022-08-02T21:08:57.444Z,6.32
2022-08-02T21:11:33.257Z,8.40
2022-08-02T21:14:06.483Z,10.25
2022-08-02T21:16:35.250Z,4.03
2022-08-02T21:19:02.373Z,5.32
2022-08-02T21:21:30.001Z,5.45
2022-08-02T21:23:58.774Z,8.32
2022-08-02T21:26:28.096Z,8.90
2022-08-02T21:28:58.139Z,6.95
2022-08-02T21:31:30.114Z,7.50
2022-08-02T21:34:00.270Z,8.38
2022-08-02T21:36:31.933Z,6.18
2022-08-02T21:39:05.214Z,9.35
2022-08-02T21:41:46.405Z,5.15
2022-08-02T21:44:19.644Z,6.25
2022-08-02T21:46:51.982Z,8.10
2022-08-02T21:49:20.544Z,11.85
2022-08-02T21:51:49.397Z,7.88
2022-08-02T21:54:21.781Z,6.53
2022-08-02T21:56:52.041Z,9.80
2022-08-02T21:59:25.445Z,13.85
2022-08-02T22:01:56.681Z,8.05
2022-08-02T22:04:25.721Z,4.28
2022-08-02T22:06:54.798Z,7.20
2022-08-02T22:09:43.475Z,8.63
2022-08-02T22:12:16.505Z,4.82
2022-08-02T22:17:53.388Z,9.52
2022-08-02T22:20:22.344Z,9.25
2022-08-02T22:22:52.140Z,6.65
2022-08-02T22:25:27.298Z,8.02
2022-08-02T22:30:58.312Z,6.43
2022-08-02T22:36:43.295Z,8.75
2022-08-02T22:39:28.633Z,10.03
2022-08-02T22:42:05.409Z,7.93
2022-08-02T22:44:44.236Z,7.68
2022-08-02T22:47:14.980Z,10.20
2022-08-02T22:49:51.649Z,8.13
2022-08-02T22:52:30.354Z,8.85
2022-08-02T22:54:57.231Z,6.90
2022-08-02T22:57:30.369Z,11.35
2022-08-02T22:58:40.203Z,14.07
2022-08-02T22:58:58.898Z,9.32
2022-08-02T22:59:08.076Z,10.18
2022-08-02T22:59:10.496Z,11.20
2022-08-02T22:59:11.209Z,10.60
2022-08-02T22:59:59.727Z,11.00
2022-08-02T23:02:27.000Z,10.70
2022-08-02T23:04:54.638Z,13.25
2022-08-02T23:07:21.537Z,10.63
2022-08-02T23:09:48.437Z,10.85
2022-08-02T23:12:19.187Z,10.05
2022-08-02T23:14:47.313Z,9.65
2022-08-02T23:17:32.846Z,8.75
2022-08-02T23:19:59.750Z,9.25
2022-08-02T23:22:29.984Z,10.00
2022-08-02T23:25:00.779Z,12.27
2022-08-02T23:27:28.528Z,10.27
2022-08-02T23:29:55.398Z,9.88
2022-08-02T23:32:22.809Z,9.00
2022-08-02T23:34:52.986Z,10.13
2022-08-02T23:37:19.815Z,11.40
2022-08-02T23:39:46.789Z,11.23
2022-08-02T23:42:13.714Z,12.30
2022-08-02T23:44:41.006Z,10.07
2022-08-02T23:47:07.882Z,10.60
2022-08-02T23:49:34.814Z,10.38
2022-08-02T23:52:02.246Z,9.32
2022-08-02T23:54:29.638Z,9.88
2022-08-02T23:56:56.493Z,9.23
2022-08-02T23:59:23.545Z,9.60
